createdAt,value
2023-02-28T00:00:26.636Z,91.60
2023-02-28T00:02:53.332Z,91.60
2023-02-28T00:05:23.175Z,91.60
2023-02-28T00:07:51.702Z,91.70
2023-02-28T00:10:23.870Z,91.70
2023-02-28T00:12:51.837Z,91.70
2023-02-28T00:15:18.931Z,91.70
2023-02-28T00:17:45.914Z,91.70
2023-02-28T00:20:13.920Z,91.80
2023-02-28T00:22:42.672Z,91.80
2023-02-28T00:25:10.770Z,91.90
2023-02-28T00:27:38.553Z,92.00
2023-02-28T00:30:06.536Z,92.10
2023-02-28T00:32:33.350Z,92.20
2023-02-28T00:35:00.025Z,92.40
2023-02-28T00:37:26.888Z,92.50
2023-02-28T00:39:53.692Z,92.60
2023-02-28T00:42:20.394Z,92.70
2023-02-28T00:44:47.126Z,92.80
2023-02-28T00:47:13.865Z,92.90
2023-02-28T00:49:41.254Z,93.00
2023-02-28T00:52:07.929Z,93.10
2023-02-28T00:54:34.656Z,93.10
2023-02-28T00:57:01.384Z,93.20
2023-02-28T00:59:28.140Z,93.30
2023-02-28T01:01:55.036Z,93.40
2023-02-28T01:04:21.754Z,93.40
2023-02-28T01:06:48.478Z,93.50
2023-02-28T01:09:15.392Z,93.60
2023-02-28T01:11:44.840Z,93.60
2023-02-28T01:14:16.464Z,93.70
2023-02-28T01:16:43.557Z,93.80
2023-02-28T01:19:10.332Z,93.80
2023-02-28T01:21:37.107Z,93.90
2023-02-28T01:24:05.071Z,93.90
2023-02-28T01:26:32.566Z,94.00
2023-02-28T01:28:59.551Z,94.10
2023-02-28T01:31:26.929Z,94.20
2023-02-28T01:33:54.054Z,94.30
2023-02-28T01:36:22.891Z,94.40
2023-02-28T01:38:50.337Z,94.40
2023-02-28T01:41:27.675Z,94.50
2023-02-28T01:43:56.456Z,94.60
2023-02-28T01:46:23.345Z,94.70
2023-02-28T01:49:06.830Z,94.80
2023-02-28T01:51:46.580Z,94.90
2023-02-28T01:54:16.781Z,95.30
2023-02-28T01:56:51.000Z,95.10
2023-02-28T01:59:24.586Z,95.10
2023-02-28T02:01:51.348Z,95.20
2023-02-28T02:04:18.077Z,95.30
2023-02-28T02:06:47.104Z,95.50
2023-02-28T02:09:14.055Z,95.60
2023-02-28T02:11:43.091Z,95.70
2023-02-28T02:14:34.074Z,95.80
2023-02-28T02:17:16.026Z,95.90
2023-02-28T02:20:07.738Z,96.00
2023-02-28T02:22:56.143Z,96.00
2023-02-28T02:25:37.956Z,96.20
2023-02-28T02:28:33.292Z,96.20
2023-02-28T02:31:20.725Z,96.40
2023-02-28T02:34:10.991Z,96.50
2023-02-28T02:36:41.542Z,96.60
2023-02-28T02:39:22.376Z,96.60
2023-02-28T02:41:56.144Z,96.70
2023-02-28T02:44:27.249Z,96.70
2023-02-28T02:47:04.853Z,96.80
2023-02-28T02:49:37.437Z,97.00
2023-02-28T02:52:07.359Z,97.10
2023-02-28T02:54:37.390Z,97.20
2023-02-28T02:57:12.243Z,97.20
2023-02-28T02:59:39.552Z,97.30
2023-02-28T03:02:10.356Z,97.40
2023-02-28T03:04:43.593Z,97.40
2023-02-28T03:07:10.320Z,97.40
2023-02-28T03:09:36.997Z,97.50
2023-02-28T03:12:04.604Z,97.60
2023-02-28T03:14:44.602Z,97.70
2023-02-28T03:17:46.607Z,97.80
2023-02-28T03:20:33.539Z,98.00
2023-02-28T03:23:30.827Z,98.00
2023-02-28T03:26:02.126Z,98.10
2023-02-28T03:28:28.810Z,98.10
2023-02-28T03:31:10.219Z,98.20
2023-02-28T03:33:43.260Z,98.30
2023-02-28T03:36:16.863Z,98.30
2023-02-28T03:38:50.055Z,98.30
2023-02-28T03:41:21.020Z,98.40
2023-02-28T03:43:55.868Z,98.40
2023-02-28T03:46:23.611Z,98.50
2023-02-28T03:49:02.046Z,98.50
2023-02-28T03:51:30.216Z,98.40
2023-02-28T03:54:06.165Z,98.50
2023-02-28T03:56:37.818Z,98.60
2023-02-28T03:59:26.640Z,98.60
2023-02-28T04:01:53.378Z,98.70
2023-02-28T04:04:20.114Z,98.70
2023-02-28T04:06:47.020Z,98.70
2023-02-28T04:09:15.435Z,98.70
2023-02-28T04:11:47.218Z,98.70
2023-02-28T04:14:13.989Z,98.80
2023-02-28T04:16:42.707Z,98.90
2023-02-28T04:19:11.157Z,98.80
2023-02-28T04:21:37.835Z,98.90
2023-02-28T04:24:05.205Z,98.90
2023-02-28T04:26:32.880Z,98.90
2023-02-28T04:29:00.139Z,99.00
2023-02-28T04:31:27.134Z,99.00
2023-02-28T04:33:53.994Z,99.10
2023-02-28T04:36:20.867Z,99.10
2023-02-28T04:38:47.677Z,99.10
2023-02-28T04:41:14.828Z,99.20
2023-02-28T04:43:41.589Z,99.30
2023-02-28T04:46:08.680Z,99.40
2023-02-28T04:48:38.036Z,99.40
2023-02-28T04:51:15.279Z,99.50
2023-02-28T04:53:42.840Z,99.60
2023-02-28T04:56:12.718Z,99.70
2023-02-28T04:58:40.676Z,99.70
2023-02-28T05:01:24.303Z,99.80
2023-02-28T05:03:52.224Z,99.80
2023-02-28T05:06:19.369Z,99.90
2023-02-28T05:08:46.115Z,99.90
2023-02-28T05:11:19.171Z,99.90
2023-02-28T05:13:46.221Z,99.90
2023-02-28T05:16:13.061Z,99.90
2023-02-28T05:18:40.615Z,99.90
2023-02-28T05:21:07.652Z,99.90
2023-02-28T05:23:34.375Z,99.90
2023-02-28T05:26:01.035Z,99.90
2023-02-28T05:28:27.772Z,99.90
2023-02-28T05:30:54.478Z,99.90
2023-02-28T05:33:21.294Z,99.90
2023-02-28T05:35:48.021Z,99.90
2023-02-28T05:38:14.743Z,99.90
2023-02-28T05:40:41.453Z,99.90
2023-02-28T05:43:11.311Z,99.90
2023-02-28T05:45:38.037Z,99.90
2023-02-28T05:48:04.888Z,99.90
2023-02-28T05:50:31.574Z,99.90
2023-02-28T05:52:58.327Z,99.90
2023-02-28T05:55:24.992Z,99.90
2023-02-28T05:57:51.712Z,99.90
2023-02-28T06:00:18.843Z,99.90
2023-02-28T06:02:45.680Z,99.90
2023-02-28T06:05:17.781Z,99.90
2023-02-28T06:07:45.153Z,99.90
2023-02-28T06:10:12.666Z,99.90
2023-02-28T06:12:39.601Z,99.90
2023-02-28T06:15:06.724Z,99.90
2023-02-28T06:17:33.448Z,99.90
2023-02-28T06:20:00.350Z,99.90
2023-02-28T06:22:27.376Z,99.90
2023-02-28T06:24:54.035Z,99.90
2023-02-28T06:27:21.651Z,99.90
2023-02-28T06:29:48.377Z,99.90
2023-02-28T06:32:15.138Z,99.90
2023-02-28T06:34:41.899Z,99.90
2023-02-28T06:37:08.647Z,99.90
2023-02-28T06:39:35.480Z,99.90
2023-02-28T06:42:02.148Z,99.90
2023-02-28T06:44:34.215Z,99.90
2023-02-28T06:47:00.883Z,99.90
2023-02-28T06:49:28.241Z,99.90
2023-02-28T06:51:55.262Z,99.90
2023-02-28T06:54:21.953Z,99.90
2023-02-28T06:56:48.807Z,99.90
2023-02-28T06:59:15.600Z,99.90
2023-02-28T07:01:42.293Z,99.90
2023-02-28T07:04:09.398Z,99.90
2023-02-28T07:06:36.109Z,99.90
2023-02-28T07:09:04.908Z,99.90
2023-02-28T07:11:32.115Z,99.90
2023-02-28T07:13:59.473Z,99.90
2023-02-28T07:16:26.828Z,99.90
2023-02-28T07:18:54.247Z,99.90
2023-02-28T07:21:21.171Z,99.90
2023-02-28T07:23:47.940Z,99.90
2023-02-28T07:26:17.962Z,99.90
2023-02-28T07:28:46.848Z,99.90
2023-02-28T07:31:15.167Z,99.90
2023-02-28T07:33:42.708Z,99.90
2023-02-28T07:36:16.390Z,99.90
2023-02-28T07:38:51.170Z,99.90
2023-02-28T07:41:18.860Z,99.90
2023-02-28T07:43:46.397Z,99.90
2023-02-28T07:46:18.583Z,99.90
2023-02-28T07:48:45.882Z,99.90
2023-02-28T07:51:13.006Z,99.90
2023-02-28T07:53:39.711Z,99.90
2023-02-28T07:56:07.045Z,99.90
2023-02-28T07:58:33.876Z,99.90
2023-02-28T08:01:08.141Z,99.90
2023-02-28T08:03:34.908Z,99.90
2023-02-28T08:06:03.317Z,99.90
2023-02-28T08:08:32.269Z,99.90
2023-02-28T08:11:01.423Z,99.90
2023-02-28T08:13:29.380Z,99.90
2023-02-28T08:15:56.526Z,99.90
2023-02-28T08:18:24.230Z,99.90
2023-02-28T08:20:50.958Z,99.90
2023-02-28T08:23:17.670Z,99.90
2023-02-28T08:25:44.409Z,99.90
2023-02-28T08:28:11.089Z,99.90
2023-02-28T08:30:38.130Z,99.90
2023-02-28T08:33:04.851Z,99.90
2023-02-28T08:35:31.650Z,99.90
2023-02-28T08:37:58.817Z,99.90
2023-02-28T08:40:25.817Z,99.90
2023-02-28T08:42:52.572Z,99.90
2023-02-28T08:45:19.256Z,99.90
2023-02-28T08:47:45.973Z,99.90
2023-02-28T08:50:15.800Z,99.90
2023-02-28T08:52:45.717Z,99.90
2023-02-28T08:55:12.443Z,99.90
2023-02-28T08:57:39.166Z,99.90
2023-02-28T09:00:06.463Z,99.90
2023-02-28T09:02:33.180Z,99.90
2023-02-28T09:04:59.870Z,99.90
2023-02-28T09:07:26.616Z,99.90
2023-02-28T09:09:56.263Z,99.90
2023-02-28T09:12:24.776Z,99.90
2023-02-28T09:14:51.874Z,99.90
2023-02-28T09:17:19.254Z,99.90
2023-02-28T09:19:46.167Z,99.90
2023-02-28T09:22:12.919Z,99.90
2023-02-28T09:27:08.211Z,99.90
2023-02-28T09:29:35.896Z,99.90
2023-02-28T09:32:02.938Z,99.90
2023-02-28T09:34:31.924Z,99.80
2023-02-28T09:36:58.978Z,99.90
2023-02-28T09:39:27.793Z,99.80
2023-02-28T09:41:55.925Z,99.70
2023-02-28T09:44:39.185Z,99.60
2023-02-28T09:47:12.556Z,99.50
2023-02-28T09:49:46.655Z,99.50
2023-02-28T09:52:18.963Z,99.40
2023-02-28T09:54:45.783Z,99.50
2023-02-28T09:57:42.060Z,99.40
2023-02-28T10:00:19.416Z,99.30
2023-02-28T10:03:07.778Z,99.10
2023-02-28T10:05:49.218Z,99.10
2023-02-28T10:08:26.302Z,99.00
2023-02-28T10:10:56.808Z,99.00
2023-02-28T10:13:29.583Z,98.90
2023-02-28T10:16:09.531Z,99.00
2023-02-28T10:18:50.177Z,99.00
2023-02-28T10:21:29.702Z,98.60
2023-02-28T10:24:22.415Z,98.60
2023-02-28T10:26:49.947Z,98.70
2023-02-28T10:29:16.731Z,98.70
2023-02-28T10:31:43.968Z,98.60
2023-02-28T10:34:13.498Z,98.40
2023-02-28T10:36:40.892Z,98.40
2023-02-28T10:39:40.149Z,98.30
2023-02-28T10:42:27.293Z,98.30
2023-02-28T10:45:07.773Z,98.20
2023-02-28T10:47:37.494Z,98.20
2023-02-28T10:50:04.497Z,98.20
2023-02-28T10:52:38.487Z,98.10
2023-02-28T10:55:25.664Z,98.10
2023-02-28T10:57:53.386Z,98.00
2023-02-28T11:00:22.847Z,98.00
2023-02-28T11:02:49.738Z,98.00
2023-02-28T11:05:27.198Z,98.10
2023-02-28T11:07:55.693Z,97.90
2023-02-28T11:10:35.480Z,97.80
2023-02-28T11:13:02.596Z,97.50
2023-02-28T11:15:31.951Z,97.50
2023-02-28T11:18:07.960Z,97.70
2023-02-28T11:20:35.210Z,97.40
2023-02-28T11:23:05.029Z,97.00
2023-02-28T11:25:34.462Z,96.70
2023-02-28T11:28:05.664Z,96.70
2023-02-28T11:30:41.439Z,96.60
2023-02-28T11:33:46.264Z,96.50
2023-02-28T11:36:22.558Z,96.40
2023-02-28T11:38:53.160Z,96.10
2023-02-28T11:41:57.439Z,96.30
2023-02-28T11:44:37.306Z,95.90
2023-02-28T11:47:27.500Z,95.80
2023-02-28T11:50:16.081Z,95.50
2023-02-28T11:52:48.366Z,95.40
2023-02-28T11:55:26.830Z,95.20
2023-02-28T11:58:12.508Z,95.00
2023-02-28T12:00:39.223Z,95.00
2023-02-28T12:03:27.597Z,94.90
2023-02-28T12:05:59.577Z,95.20
2023-02-28T12:08:42.608Z,95.40
2023-02-28T12:11:28.840Z,94.80
2023-02-28T12:14:04.564Z,94.50
2023-02-28T12:16:57.239Z,94.60
2023-02-28T12:19:52.178Z,94.40
2023-02-28T12:22:37.861Z,94.40
2023-02-28T12:25:14.438Z,94.00
2023-02-28T12:27:43.995Z,93.50
2023-02-28T12:30:22.931Z,93.50
2023-02-28T12:32:57.138Z,93.10
2023-02-28T12:35:29.987Z,93.40
2023-02-28T12:38:29.797Z,93.10
2023-02-28T12:41:08.741Z,93.60
2023-02-28T12:43:38.990Z,93.70
2023-02-28T12:46:52.176Z,93.70
2023-02-28T12:49:26.869Z,93.90
2023-02-28T12:51:54.031Z,94.10
2023-02-28T12:54:23.586Z,93.30
2023-02-28T12:57:27.694Z,93.40
2023-02-28T13:00:06.129Z,92.90
2023-02-28T13:02:41.863Z,92.60
2023-02-28T13:05:09.298Z,92.90
2023-02-28T13:08:17.280Z,92.90
2023-02-28T13:10:55.190Z,93.00
2023-02-28T13:13:32.920Z,93.00
2023-02-28T13:16:10.744Z,93.10
2023-02-28T13:18:40.677Z,93.30
2023-02-28T13:21:10.074Z,93.30
2023-02-28T13:23:48.126Z,93.50
2023-02-28T13:26:14.820Z,93.60
2023-02-28T13:28:56.323Z,93.50
2023-02-28T13:31:23.028Z,93.80
2023-02-28T13:33:55.492Z,93.50
2023-02-28T13:36:23.853Z,93.10
2023-02-28T13:38:56.450Z,92.80
2023-02-28T13:41:42.319Z,92.50
2023-02-28T13:44:13.629Z,92.60
2023-02-28T13:46:49.794Z,92.70
2023-02-28T13:49:24.102Z,92.90
2023-02-28T13:51:54.777Z,93.20
2023-02-28T13:54:24.608Z,92.90
2023-02-28T13:57:21.978Z,92.60
2023-02-28T14:00:42.428Z,92.70
2023-02-28T14:03:36.321Z,93.00
2023-02-28T14:06:27.408Z,92.40
2023-02-28T14:09:04.251Z,92.40
2023-02-28T14:11:38.365Z,92.40
2023-02-28T14:14:06.929Z,92.50
2023-02-28T14:16:41.280Z,92.70
2023-02-28T14:19:25.194Z,92.80
2023-02-28T14:22:02.978Z,92.70
2023-02-28T14:24:52.210Z,92.70
2023-02-28T14:27:35.739Z,92.80
2023-02-28T14:30:30.293Z,92.90
2023-02-28T14:33:17.831Z,93.10
2023-02-28T14:35:52.058Z,92.80
2023-02-28T14:38:27.161Z,92.90
2023-02-28T14:40:56.408Z,92.80
2023-02-28T14:43:26.617Z,92.50
2023-02-28T14:45:59.586Z,92.90
2023-02-28T14:48:27.754Z,92.30
2023-02-28T14:50:57.601Z,92.20
2023-02-28T14:53:27.284Z,92.30
2023-02-28T14:55:54.222Z,92.30
2023-02-28T14:58:23.348Z,92.10
2023-02-28T15:00:52.048Z,92.20
2023-02-28T15:03:23.517Z,92.10
2023-02-28T15:06:05.115Z,92.20
2023-02-28T15:08:37.022Z,92.30
2023-02-28T15:11:07.950Z,92.50
2023-02-28T15:13:42.187Z,92.40
2023-02-28T15:16:16.233Z,92.40
2023-02-28T15:19:03.993Z,92.50
2023-02-28T15:21:36.479Z,92.40
2023-02-28T15:24:24.678Z,92.60
2023-02-28T15:26:56.046Z,92.90
2023-02-28T15:29:24.969Z,93.00
2023-02-28T15:32:08.422Z,93.10
2023-02-28T15:34:44.623Z,93.10
2023-02-28T15:37:41.573Z,93.20
2023-02-28T15:40:16.362Z,93.30
2023-02-28T15:42:44.874Z,93.20
2023-02-28T15:45:38.375Z,93.20
2023-02-28T15:48:14.139Z,93.20
2023-02-28T15:50:41.631Z,93.30
2023-02-28T15:53:15.478Z,93.40
2023-02-28T15:55:42.429Z,93.50
2023-02-28T15:58:13.845Z,93.60
2023-02-28T16:00:40.941Z,93.60
2023-02-28T16:03:36.630Z,93.70
2023-02-28T16:06:32.365Z,93.80
2023-02-28T16:08:59.086Z,93.80
2023-02-28T16:11:26.048Z,93.90
2023-02-28T16:13:53.687Z,93.90
2023-02-28T16:16:23.065Z,93.90
2023-02-28T16:18:49.848Z,94.00
2023-02-28T16:21:17.235Z,94.00
2023-02-28T16:23:44.172Z,94.00
2023-02-28T16:26:19.883Z,94.10
2023-02-28T16:28:46.645Z,94.10
2023-02-28T16:31:17.432Z,94.10
2023-02-28T16:33:45.903Z,94.20
2023-02-28T16:36:18.437Z,94.20
2023-02-28T16:38:45.285Z,94.30
2023-02-28T16:41:18.203Z,94.30
2023-02-28T16:43:49.340Z,94.70
2023-02-28T16:46:17.548Z,94.40
2023-02-28T16:48:52.381Z,94.40
2023-02-28T16:51:19.774Z,94.50
2023-02-28T16:53:46.904Z,94.50
2023-02-28T16:56:19.558Z,94.60
2023-02-28T16:58:46.480Z,94.60
2023-02-28T17:01:13.416Z,94.70
2023-02-28T17:03:41.328Z,94.70
2023-02-28T17:06:19.038Z,94.80
2023-02-28T17:08:45.796Z,94.80
2023-02-28T17:11:12.502Z,94.80
2023-02-28T17:13:39.200Z,94.90
2023-02-28T17:16:06.396Z,95.00
2023-02-28T17:18:35.617Z,95.00
2023-02-28T17:21:02.628Z,95.00
2023-02-28T17:23:30.386Z,95.10
2023-02-28T17:25:58.169Z,95.10
2023-02-28T17:28:25.241Z,95.20
2023-02-28T17:30:52.634Z,95.20
2023-02-28T17:33:19.676Z,95.30
2023-02-28T17:35:46.415Z,95.30
2023-02-28T17:38:20.499Z,95.30
2023-02-28T17:40:47.328Z,95.40
2023-02-28T17:43:15.763Z,95.40
2023-02-28T17:45:43.194Z,95.40
2023-02-28T17:48:13.685Z,95.40
2023-02-28T17:50:40.480Z,95.50
2023-02-28T17:53:07.523Z,95.50
2023-02-28T17:55:35.335Z,95.50
2023-02-28T17:58:04.037Z,95.50
2023-02-28T18:00:31.004Z,95.50
2023-02-28T18:02:57.761Z,95.50
2023-02-28T18:05:24.688Z,95.50
2023-02-28T18:07:52.552Z,95.50
2023-02-28T18:10:20.887Z,95.60
2023-02-28T18:12:52.325Z,95.60
2023-02-28T18:15:23.480Z,95.60
2023-02-28T18:17:50.752Z,95.60
2023-02-28T18:20:18.021Z,95.60
2023-02-28T18:22:45.250Z,95.60
2023-02-28T18:25:16.751Z,95.60
2023-02-28T18:27:59.064Z,95.50
2023-02-28T18:30:31.653Z,95.50
2023-02-28T18:32:59.726Z,95.60
2023-02-28T18:35:36.063Z,95.50
2023-02-28T18:38:05.370Z,95.50
2023-02-28T18:40:32.628Z,95.50
2023-02-28T18:42:59.739Z,95.40
2023-02-28T18:45:26.914Z,95.40
2023-02-28T18:47:53.629Z,95.40
2023-02-28T18:50:20.457Z,95.40
2023-02-28T18:52:47.302Z,95.40
2023-02-28T18:55:18.657Z,95.50
2023-02-28T18:57:48.571Z,95.50
2023-02-28T19:00:19.728Z,95.60
2023-02-28T19:02:46.433Z,95.60
2023-02-28T19:05:13.480Z,95.70
2023-02-28T19:07:40.871Z,95.70
2023-02-28T19:10:08.669Z,95.70
2023-02-28T19:12:36.918Z,95.80
2023-02-28T19:15:04.818Z,95.80
2023-02-28T19:17:32.255Z,95.80
2023-02-28T19:19:59.170Z,95.90
2023-02-28T19:22:26.380Z,95.90
2023-02-28T19:24:53.304Z,95.90
2023-02-28T19:27:20.306Z,95.90
2023-02-28T19:29:51.191Z,96.00
2023-02-28T19:32:20.014Z,96.00
2023-02-28T19:34:47.539Z,96.00
2023-02-28T19:37:14.325Z,96.00
2023-02-28T19:39:44.392Z,96.10
2023-02-28T19:42:15.934Z,96.10
2023-02-28T19:44:43.313Z,96.20
2023-02-28T19:47:10.014Z,96.20
2023-02-28T19:49:36.884Z,96.20
2023-02-28T19:52:04.516Z,96.30
2023-02-28T19:54:31.402Z,96.30
2023-02-28T19:56:58.507Z,96.30
2023-02-28T19:59:35.706Z,96.30
2023-02-28T20:02:06.348Z,96.40
2023-02-28T20:04:33.115Z,96.40
2023-02-28T20:06:59.845Z,96.40
2023-02-28T20:09:31.656Z,96.40
2023-02-28T20:12:01.656Z,96.40
2023-02-28T20:14:29.247Z,96.50
2023-02-28T20:16:58.108Z,96.50
2023-02-28T20:19:25.057Z,96.60
2023-02-28T20:21:51.852Z,96.60
2023-02-28T20:24:18.677Z,96.60
2023-02-28T20:26:45.347Z,96.60
2023-02-28T20:29:12.204Z,96.60
2023-02-28T20:31:39.789Z,96.70
2023-02-28T20:34:06.534Z,97.00
2023-02-28T20:36:33.283Z,96.70
2023-02-28T20:39:00.642Z,96.70
2023-02-28T20:41:27.894Z,96.70
2023-02-28T20:43:58.754Z,96.80
2023-02-28T20:46:26.183Z,96.80
2023-02-28T20:48:53.404Z,96.80
2023-02-28T20:51:20.610Z,96.80
2023-02-28T20:53:47.457Z,96.80
2023-02-28T20:56:19.590Z,96.90
2023-02-28T20:58:48.617Z,96.90
2023-02-28T21:01:18.600Z,96.90
2023-02-28T21:03:50.639Z,96.90
2023-02-28T21:06:19.472Z,96.90
2023-02-28T21:08:46.592Z,97.00
2023-02-28T21:11:28.067Z,97.00
2023-02-28T21:13:55.472Z,97.00
2023-02-28T21:16:24.105Z,97.00
2023-02-28T21:18:50.885Z,97.00
2023-02-28T21:21:20.500Z,97.00
2023-02-28T21:23:47.551Z,97.40
2023-02-28T21:26:16.929Z,97.10
2023-02-28T21:28:46.403Z,97.10
2023-02-28T21:31:16.559Z,97.10
2023-02-28T21:33:44.568Z,97.10
2023-02-28T21:36:22.902Z,97.20
2023-02-28T21:38:55.652Z,97.10
2023-02-28T21:41:24.030Z,97.20
2023-02-28T21:43:51.557Z,97.20
2023-02-28T21:46:21.172Z,97.20
2023-02-28T21:48:49.074Z,97.30
2023-02-28T21:51:21.328Z,97.30
2023-02-28T21:53:48.777Z,97.30
2023-02-28T21:56:20.983Z,97.30
2023-02-28T21:58:48.307Z,97.30
2023-02-28T22:01:20.530Z,97.30
2023-02-28T22:03:48.979Z,97.40
2023-02-28T22:06:17.886Z,97.40
2023-02-28T22:08:46.965Z,97.40
2023-02-28T22:11:14.854Z,97.40
2023-02-28T22:13:41.735Z,97.40
2023-02-28T22:16:14.340Z,97.40
2023-02-28T22:18:42.115Z,97.40
2023-02-28T22:21:10.375Z,97.50
2023-02-28T22:23:38.494Z,97.50
2023-02-28T22:26:07.422Z,97.50
2023-02-28T22:28:34.684Z,97.50
2023-02-28T22:31:02.194Z,97.50
2023-02-28T22:33:28.933Z,97.50
2023-02-28T22:35:55.683Z,97.50
2023-02-28T22:38:22.792Z,97.50
2023-02-28T22:40:49.573Z,97.50
2023-02-28T22:43:16.284Z,97.60
2023-02-28T22:45:42.953Z,97.60
2023-02-28T22:48:11.047Z,97.60
2023-02-28T22:50:37.834Z,97.60
2023-02-28T22:53:04.552Z,97.60
2023-02-28T22:55:31.238Z,97.60
2023-02-28T22:57:57.934Z,97.60
2023-02-28T23:00:24.724Z,97.60
2023-02-28T23:02:51.459Z,97.70
2023-02-28T23:05:18.290Z,97.70
2023-02-28T23:07:45.271Z,97.70
2023-02-28T23:10:15.305Z,97.70
2023-02-28T23:12:50.391Z,97.70
2023-02-28T23:15:21.343Z,97.80
2023-02-28T23:17:49.080Z,97.80
2023-02-28T23:20:20.780Z,97.80
2023-02-28T23:22:50.460Z,97.80
2023-02-28T23:25:20.939Z,97.90
2023-02-28T23:27:48.226Z,97.90
2023-02-28T23:30:15.512Z,97.90
2023-02-28T23:32:42.861Z,97.90
2023-02-28T23:35:11.393Z,98.00
2023-02-28T23:37:39.637Z,98.00
2023-02-28T23:40:10.763Z,98.00
2023-02-28T23:42:37.671Z,98.00
2023-02-28T23:45:04.925Z,98.00
2023-02-28T23:47:32.468Z,98.00
2023-02-28T23:49:59.298Z,98.00
2023-02-28T23:52:26.078Z,98.00
2023-02-28T23:54:52.747Z,98.00
2023-02-28T23:57:19.566Z,98.10
2023-02-28T23:59:46.357Z,98.10
